Time;durP1;ratioP1;P1;durP2;ratioP2;P2;SDS_P1;SDS_P2;PMS_P1;PMS_P2;Temp;Humidity;BMP_temperature;BMP_pressure;BME280_temperature;BME280_humidity;BME280_pressure;Samples;Min_cycle;Max_cycle;Signal;HPM_P1;HPM_P2
2023/10/12 00:01:26;;;;;;;10.80;4.63;;;15.90;1.00;;;;;;5014880;28;20418;-80
2023/10/12 00:03:59;;;;;;;13.73;5.10;;;15.80;1.00;;;;;;5009148;28;20484;-81
2023/10/12 00:06:52;;;;;;;21.00;4.73;;;15.80;1.00;;;;;;5025285;28;20798;-80
2023/10/12 00:19:24;;;;;;;12.90;4.77;;;15.70;1.00;;;;;;5021232;28;20911;-72
2023/10/12 00:22:00;;;;;;;25.40;5.70;;;15.60;1.00;;;;;;4997416;28;20790;-71
2023/10/12 00:24:27;;;;;;;12.63;4.37;;;15.60;1.00;;;;;;5010698;28;20826;-71
2023/10/12 00:26:54;;;;;;;10.60;4.60;;;15.60;1.00;;;;;;5014270;28;20538;-72
2023/10/12 00:29:21;;;;;;;10.27;4.63;;;15.60;1.00;;;;;;5009690;28;20429;-72
2023/10/12 00:31:48;;;;;;;15.60;4.93;;;15.50;1.00;;;;;;5014863;28;20451;-71
2023/10/12 00:34:15;;;;;;;25.80;5.90;;;15.50;1.00;;;;;;5013043;28;20503;-71
2023/10/12 00:36:45;;;;;;;19.80;5.50;;;15.40;1.00;;;;;;5017707;28;20432;-71
2023/10/12 00:39:11;;;;;;;14.40;4.30;;;15.40;1.00;;;;;;5017225;28;20502;-72
2023/10/12 00:41:43;;;;;;;29.77;5.30;;;15.50;1.00;;;;;;5014417;28;20464;-71
2023/10/12 00:44:11;;;;;;;9.73;4.13;;;15.50;1.00;;;;;;5012509;28;20192;-71
2023/10/12 00:46:52;;;;;;;23.80;4.90;;;15.60;1.00;;;;;;5010020;28;20927;-72
2023/10/12 00:49:29;;;;;;;11.00;4.70;;;15.60;1.00;;;;;;5017711;28;20468;-80
2023/10/12 00:55:46;;;;;;;18.07;4.00;;;15.70;1.00;;;;;;5015694;28;20389;-80
2023/10/12 00:58:46;;;;;;;8.80;4.57;;;15.80;1.00;;;;;;4996540;28;20486;-80
2023/10/12 01:01:31;;;;;;;12.33;4.50;;;16.00;1.00;;;;;;5010418;28;20424;-80
2023/10/12 01:03:58;;;;;;;19.20;5.03;;;16.10;1.00;;;;;;5020050;28;20502;-81
2023/10/12 01:06:28;;;;;;;20.50;4.00;;;16.10;1.00;;;;;;5023741;28;20902;-80
2023/10/12 01:08:59;;;;;;;9.63;4.10;;;16.20;1.00;;;;;;5014975;28;20947;-80
2023/10/12 01:11:36;;;;;;;14.70;4.47;;;16.30;1.00;;;;;;5022480;28;20391;-80
2023/10/12 01:14:11;;;;;;;7.47;4.40;;;16.50;1.00;;;;;;5011782;28;20425;-80
2023/10/12 01:19:20;;;;;;;18.10;5.07;;;16.60;1.00;;;;;;5014096;28;21002;-71
2023/10/12 01:21:47;;;;;;;7.30;3.63;;;16.60;1.00;;;;;;4999968;28;20516;-71
2023/10/12 01:24:13;;;;;;;31.10;5.90;;;16.70;1.00;;;;;;5010975;28;20444;-71
2023/10/12 01:26:44;;;;;;;20.60;5.10;;;16.70;1.00;;;;;;5012896;28;20457;-71
2023/10/12 01:29:19;;;;;;;9.40;4.27;;;16.70;1.00;;;;;;5014599;28;20178;-71
2023/10/12 01:31:51;;;;;;;21.30;5.47;;;16.80;1.00;;;;;;5011569;28;20515;-72
2023/10/12 01:38:05;;;;;;;11.00;4.03;;;16.80;1.00;;;;;;5034979;28;20606;-80
2023/10/12 01:40:55;;;;;;;13.33;4.37;;;16.70;1.00;;;;;;5019850;28;20454;-80
2023/10/12 01:43:30;;;;;;;7.97;4.10;;;16.80;1.00;;;;;;5017726;28;20456;-79
2023/10/12 01:46:23;;;;;;;9.20;4.27;;;16.90;1.00;;;;;;5030277;28;20424;-80
2023/10/12 01:49:06;;;;;;;13.03;4.30;;;16.90;1.00;;;;;;5008586;28;20431;-80
2023/10/12 01:51:45;;;;;;;11.03;4.10;;;16.90;1.00;;;;;;5014831;28;20466;-80
2023/10/12 01:57:36;;;;;;;11.50;3.90;;;17.00;1.00;;;;;;5009007;28;20858;-80
2023/10/12 02:00:10;;;;;;;12.10;5.40;;;17.00;1.00;;;;;;5005206;28;20512;-81
2023/10/12 02:02:39;;;;;;;12.30;4.20;;;17.00;1.00;;;;;;5008149;28;20434;-82
2023/10/12 02:05:09;;;;;;;12.57;4.33;;;17.00;1.00;;;;;;5005503;28;20610;-72
2023/10/12 02:07:36;;;;;;;13.43;4.77;;;17.10;1.00;;;;;;5010649;28;20540;-71
2023/10/12 02:10:01;;;;;;;21.90;4.87;;;17.10;1.00;;;;;;5013326;28;20430;-72
2023/10/12 02:12:27;;;;;;;18.50;4.80;;;17.10;1.00;;;;;;5011526;28;20457;-72
2023/10/12 02:14:53;;;;;;;28.57;5.53;;;17.20;1.00;;;;;;5004398;28;20691;-71
2023/10/12 02:17:25;;;;;;;12.57;4.70;;;17.20;1.00;;;;;;5008878;28;20465;-71
2023/10/12 02:19:51;;;;;;;14.83;4.77;;;17.10;1.00;;;;;;5003797;28;20420;-72
2023/10/12 02:22:29;;;;;;;21.83;5.87;;;17.10;1.00;;;;;;5001458;28;20431;-71
2023/10/12 02:25:09;;;;;;;22.83;5.80;;;17.10;1.00;;;;;;4999551;28;20168;-71
2023/10/12 02:27:54;;;;;;;15.57;4.90;;;17.20;1.00;;;;;;5012825;28;20437;-72
2023/10/12 02:30:28;;;;;;;24.23;5.77;;;17.30;1.00;;;;;;5006301;28;20437;-71
2023/10/12 02:33:08;;;;;;;17.73;5.10;;;17.30;1.00;;;;;;5008961;28;20494;-71
2023/10/12 02:35:36;;;;;;;14.07;5.07;;;17.20;1.00;;;;;;4999921;28;20437;-71
2023/10/12 02:38:08;;;;;;;13.63;5.30;;;17.20;1.00;;;;;;5004788;28;20475;-71
2023/10/12 02:40:35;;;;;;;13.23;4.80;;;17.20;1.00;;;;;;5009469;28;20435;-72
2023/10/12 02:43:09;;;;;;;22.60;5.20;;;17.10;1.00;;;;;;5008607;28;20437;-71
2023/10/12 02:45:40;;;;;;;32.30;7.40;;;17.10;1.00;;;;;;5008156;28;20441;-71
2023/10/12 02:48:12;;;;;;;28.40;5.83;;;17.10;1.00;;;;;;5011361;28;20468;-71
2023/10/12 02:50:57;;;;;;;18.43;5.47;;;17.10;1.00;;;;;;5010393;28;20474;-71
2023/10/12 02:53:28;;;;;;;10.87;5.00;;;17.00;1.00;;;;;;4995052;28;20904;-72
2023/10/12 02:55:58;;;;;;;12.60;4.60;;;17.00;1.00;;;;;;5001085;28;20425;-71
2023/10/12 02:58:24;;;;;;;10.97;4.30;;;17.00;1.00;;;;;;5005531;28;20448;-71
2023/10/12 03:00:56;;;;;;;29.70;7.10;;;17.00;1.00;;;;;;5019462;28;20968;-71
2023/10/12 03:03:27;;;;;;;20.70;5.00;;;17.00;1.00;;;;;;5015765;28;20423;-72
2023/10/12 03:06:07;;;;;;;14.47;4.40;;;17.00;1.00;;;;;;5025876;28;20413;-71
2023/10/12 03:08:46;;;;;;;37.50;7.80;;;17.00;1.00;;;;;;5008135;28;20396;-71
2023/10/12 03:11:19;;;;;;;17.03;4.40;;;17.10;1.00;;;;;;5018488;28;20440;-71
2023/10/12 03:13:59;;;;;;;13.30;4.33;;;17.10;1.00;;;;;;5016908;28;20495;-71
2023/10/12 03:16:28;;;;;;;19.17;4.97;;;17.10;1.00;;;;;;5013396;28;20562;-71
2023/10/12 03:19:00;;;;;;;28.40;6.30;;;17.10;1.00;;;;;;5009858;28;20435;-71
2023/10/12 03:21:27;;;;;;;16.43;5.20;;;17.10;1.00;;;;;;5010963;28;20443;-71
2023/10/12 03:23:56;;;;;;;9.77;4.43;;;17.00;1.00;;;;;;5011421;28;20422;-71
2023/10/12 03:28:50;;;;;;;11.13;4.63;;;17.00;1.00;;;;;;5006307;28;20436;-71
2023/10/12 03:31:26;;;;;;;17.20;4.50;;;17.10;1.00;;;;;;5010484;28;20269;-73
2023/10/12 03:37:45;;;;;;;23.77;5.50;;;17.10;1.00;;;;;;5010016;28;20804;-80
2023/10/12 03:47:04;;;;;;;21.20;5.77;;;17.10;1.00;;;;;;5012878;28;20519;-80
2023/10/12 03:52:52;;;;;;;23.13;4.43;;;17.10;1.00;;;;;;5004555;28;20925;-81
2023/10/12 03:55:28;;;;;;;6.20;3.90;;;17.20;1.00;;;;;;5012354;28;20430;-81
2023/10/12 03:58:07;;;;;;;8.97;3.90;;;17.30;1.00;;;;;;5012577;28;20472;-81
2023/10/12 04:01:23;;;;;;;18.63;3.93;;;17.30;1.00;;;;;;5024879;28;20420;-81
2023/10/12 04:04:21;;;;;;;11.43;4.30;;;17.40;1.00;;;;;;5016662;28;20430;-80
2023/10/12 04:09:52;;;;;;;22.20;4.70;;;17.30;1.00;;;;;;5025834;28;20415;-80
2023/10/12 04:14:54;;;;;;;8.13;4.10;;;17.40;1.00;;;;;;5017415;28;20446;-80
2023/10/12 04:17:52;;;;;;;11.30;4.17;;;17.40;1.00;;;;;;5016121;28;20940;-81
2023/10/12 04:20:23;;;;;;;11.43;4.97;;;17.50;1.00;;;;;;5016862;28;20176;-87
2023/10/12 04:25:45;;;;;;;8.83;4.00;;;17.50;1.00;;;;;;5017526;28;20913;-90
2023/10/12 04:28:35;;;;;;;8.30;4.43;;;17.50;1.00;;;;;;5017822;28;20203;-89
2023/10/12 04:31:48;;;;;;;7.47;3.50;;;17.60;1.00;;;;;;5016290;28;20763;-90
2023/10/12 04:34:16;;;;;;;11.80;4.13;;;17.50;1.00;;;;;;4997870;28;20401;-90
2023/10/12 04:40:43;;;;;;;9.57;4.10;;;17.50;1.00;;;;;;5016946;28;20454;-90
2023/10/12 04:46:47;;;;;;;11.23;4.37;;;17.40;1.00;;;;;;5004616;28;20436;-90
2023/10/12 04:52:17;;;;;;;15.57;4.43;;;17.30;1.00;;;;;;5005199;28;20745;-81
2023/10/12 04:57:32;;;;;;;9.50;5.20;;;17.30;1.00;;;;;;5012293;28;20509;-81
2023/10/12 05:11:16;;;;;;;10.33;3.20;;;17.20;1.00;;;;;;5033809;28;20471;-90
2023/10/12 05:13:53;;;;;;;7.93;3.90;;;17.20;1.00;;;;;;5025844;28;20396;-90
2023/10/12 05:16:45;;;;;;;12.63;4.50;;;17.10;1.00;;;;;;5018550;28;20429;-89
2023/10/12 05:19:22;;;;;;;9.20;4.20;;;17.00;1.00;;;;;;5001522;28;20470;-90
2023/10/12 05:22:40;;;;;;;18.37;4.80;;;17.10;1.00;;;;;;5017123;28;20435;-80
2023/10/12 05:25:11;;;;;;;11.73;4.03;;;17.10;1.00;;;;;;5031601;28;20513;-81
2023/10/12 05:28:08;;;;;;;13.23;4.77;;;16.90;1.00;;;;;;5015473;28;20598;-81
2023/10/12 05:31:27;;;;;;;10.30;4.40;;;16.90;1.00;;;;;;5015956;28;20426;-80
2023/10/12 05:37:26;;;;;;;9.03;4.13;;;16.70;1.00;;;;;;5020553;28;20507;-90
2023/10/12 05:40:14;;;;;;;9.40;3.97;;;16.70;1.00;;;;;;5018936;28;20445;-90
2023/10/12 05:42:39;;;;;;;8.83;4.20;;;16.70;1.00;;;;;;5024299;28;20429;-89
2023/10/12 05:52:11;;;;;;;33.07;7.40;;;16.90;1.00;;;;;;5009869;28;20538;-83
2023/10/12 05:58:11;;;;;;;15.63;5.00;;;;;;;;;;5013598;28;20460;-83
2023/10/12 06:00:52;;;;;;;13.73;4.73;;;17.00;1.00;;;;;;5017931;28;20417;-84
2023/10/12 06:03:23;;;;;;;11.83;5.10;;;17.00;1.00;;;;;;5013606;28;20446;-83
2023/10/12 06:05:59;;;;;;;20.17;5.60;;;17.00;1.00;;;;;;5003547;28;20390;-83
2023/10/12 06:12:13;;;;;;;13.57;4.83;;;17.10;1.00;;;;;;5004271;28;20997;-86
2023/10/12 06:14:56;;;;;;;11.60;4.40;;;17.10;1.00;;;;;;5014638;28;20439;-89
2023/10/12 06:17:30;;;;;;;16.03;4.50;;;17.00;1.00;;;;;;5021890;28;20457;-92
2023/10/12 06:20:46;;;;;;;9.30;4.40;;;17.00;1.00;;;;;;5034124;28;20417;-92
2023/10/12 06:23:16;;;;;;;10.57;4.93;;;17.00;1.00;;;;;;5009035;28;20420;-84
2023/10/12 06:26:17;;;;;;;14.93;5.40;;;17.00;1.00;;;;;;5011667;28;20408;-81
2023/10/12 06:28:43;;;;;;;15.13;4.23;;;17.00;1.00;;;;;;5034409;28;20424;-81
2023/10/12 06:31:11;;;;;;;10.73;4.83;;;17.00;1.00;;;;;;5023014;28;20392;-81
2023/10/12 06:33:41;;;;;;;17.10;4.77;;;17.00;1.00;;;;;;5032916;28;20469;-82
2023/10/12 06:36:16;;;;;;;10.23;4.70;;;17.00;1.00;;;;;;5024823;28;20435;-82
2023/10/12 06:45:06;;;;;;;7.63;4.00;;;17.10;1.00;;;;;;5029130;28;20405;-91
2023/10/12 06:47:46;;;;;;;13.50;4.87;;;17.00;1.00;;;;;;5012109;28;20410;-91
2023/10/12 06:50:24;;;;;;;9.17;4.53;;;17.00;1.00;;;;;;5014050;28;20406;-92
2023/10/12 06:53:16;;;;;;;15.63;4.90;;;17.00;1.00;;;;;;5013803;28;20392;-82
2023/10/12 06:55:57;;;;;;;13.10;4.80;;;17.10;1.00;;;;;;5021626;28;20504;-82
2023/10/12 06:59:07;;;;;;;8.83;4.40;;;17.10;1.00;;;;;;5013290;28;20491;-81
2023/10/12 07:04:53;;;;;;;8.33;4.50;;;17.20;1.00;;;;;;5021590;28;20388;-82
2023/10/12 07:10:53;;;;;;;13.97;4.77;;;17.40;1.00;;;;;;5012222;28;20374;-91
2023/10/12 07:17:07;;;;;;;15.07;4.63;;;17.50;1.00;;;;;;4995722;28;20450;-92
2023/10/12 07:29:46;;;;;;;36.70;15.00;;;17.90;1.00;;;;;;5014364;28;20438;-91
2023/10/12 07:39:20;;;;;;;8.70;4.60;;;17.80;1.00;;;;;;5011803;28;20422;-82
2023/10/12 07:42:05;;;;;;;11.37;4.20;;;17.90;1.00;;;;;;4996065;28;20847;-82
2023/10/12 07:45:06;;;;;;;10.80;4.57;;;17.90;1.00;;;;;;4991888;28;20434;-82
2023/10/12 07:48:02;;;;;;;10.10;3.77;;;17.90;1.00;;;;;;4991847;28;20788;-82
2023/10/12 07:50:37;;;;;;;12.80;6.67;;;18.00;1.00;;;;;;4996794;28;20451;-83
2023/10/12 07:53:21;;;;;;;11.30;4.70;;;18.00;1.00;;;;;;4994081;28;22340;-82
2023/10/12 07:56:05;;;;;;;9.20;4.80;;;18.10;1.00;;;;;;5003072;28;20416;-82
2023/10/12 07:58:35;;;;;;;11.80;4.50;;;18.20;1.00;;;;;;4996893;28;20884;-81
2023/10/12 08:05:14;;;;;;;13.97;4.17;;;18.40;1.00;;;;;;4998944;28;20434;-81
2023/10/12 08:13:39;;;;;;;11.03;4.70;;;18.60;1.00;;;;;;4993192;28;20426;-82
2023/10/12 08:16:13;;;;;;;13.30;4.90;;;18.70;1.00;;;;;;5012059;28;20530;-82
2023/10/12 08:19:27;;;;;;;20.00;6.90;;;18.70;1.00;;;;;;5010919;28;20438;-81
2023/10/12 08:21:59;;;;;;;9.77;4.70;;;18.80;1.00;;;;;;5010846;28;20463;-82
2023/10/12 08:27:53;;;;;;;13.90;4.67;;;19.10;1.00;;;;;;5009228;28;20501;-91
2023/10/12 08:30:23;;;;;;;8.87;4.80;;;;;;;;;;5016666;28;20462;-90
2023/10/12 08:33:14;;;;;;;8.97;5.13;;;19.00;1.00;;;;;;5028192;28;20448;-91
2023/10/12 08:36:23;;;;;;;7.20;5.10;;;19.10;1.00;;;;;;5018866;28;20430;-90
2023/10/12 08:38:40;;;;;;;12.37;5.37;;;19.10;1.00;;;;;;4996164;28;20492;-83
2023/10/12 08:44:10;;;;;;;16.73;5.40;;;19.00;1.00;;;;;;5016194;28;20530;-82
2023/10/12 08:52:40;;;;;;;8.93;5.60;;;19.00;1.00;;;;;;5026039;28;20434;-82
2023/10/12 08:55:24;;;;;;;9.97;5.13;;;19.00;1.00;;;;;;5027385;28;20479;-88
2023/10/12 08:58:42;;;;;;;17.50;5.57;;;19.10;1.00;;;;;;5012431;28;20529;-89
2023/10/12 09:01:42;;;;;;;12.47;5.37;;;19.10;1.00;;;;;;5044884;28;20416;-90
2023/10/12 09:04:12;;;;;;;18.43;5.57;;;19.00;1.00;;;;;;5023656;28;20431;-90
2023/10/12 09:09:25;;;;;;;9.87;5.30;;;19.00;1.00;;;;;;5026589;28;20436;-82
2023/10/12 09:12:23;;;;;;;16.03;5.80;;;18.90;1.00;;;;;;5019512;28;20446;-82
2023/10/12 09:15:28;;;;;;;13.00;5.70;;;18.90;1.00;;;;;;5027924;28;20924;-81
2023/10/12 09:17:59;;;;;;;23.43;6.10;;;18.80;1.00;;;;;;5018569;28;21011;-81
2023/10/12 09:30:53;;;;;;;11.17;5.63;;;18.80;1.00;;;;;;5015656;28;20434;-82
2023/10/12 09:36:28;;;;;;;10.40;5.57;;;18.80;1.00;;;;;;4993825;28;20421;-82
2023/10/12 09:39:40;;;;;;;15.43;5.47;;;18.80;1.00;;;;;;4990449;28;20524;-81
2023/10/12 09:42:27;;;;;;;15.10;5.77;;;18.90;1.00;;;;;;4971414;28;20482;-90
2023/10/12 09:45:04;;;;;;;13.73;6.30;;;19.00;1.00;;;;;;4994450;28;20431;-90
2023/10/12 09:47:55;;;;;;;17.10;6.13;;;19.00;1.00;;;;;;5008971;28;20462;-89
2023/10/12 09:53:57;;;;;;;17.83;7.03;;;19.10;1.00;;;;;;4995126;28;20452;-89
2023/10/12 09:59:59;;;;;;;18.30;7.63;;;19.10;1.00;;;;;;4981518;28;20928;-90
2023/10/12 10:03:02;;;;;;;19.20;6.60;;;19.20;1.00;;;;;;4989503;28;20997;-89
2023/10/12 10:05:52;;;;;;;11.30;6.17;;;19.20;1.00;;;;;;4982658;28;20494;-89
2023/10/12 10:11:39;;;;;;;18.57;7.37;;;19.40;1.00;;;;;;4998320;28;20421;-88
2023/10/12 10:14:20;;;;;;;11.77;6.67;;;19.40;1.00;;;;;;5010235;28;20437;-88
2023/10/12 10:17:11;;;;;;;26.20;7.73;;;19.40;1.00;;;;;;4998435;28;20527;-90
2023/10/12 10:19:51;;;;;;;27.50;6.70;;;19.40;1.00;;;;;;5010528;28;20469;-89
2023/10/12 10:22:23;;;;;;;16.17;6.27;;;;;;;;;;5021467;28;20430;-90
2023/10/12 10:25:34;;;;;;;18.00;7.30;;;19.50;1.00;;;;;;5017456;28;20411;-89
2023/10/12 10:28:08;;;;;;;21.00;6.97;;;19.50;1.00;;;;;;5018770;28;22257;-89
2023/10/12 10:30:56;;;;;;;24.97;7.10;;;19.50;1.00;;;;;;5013063;28;20445;-86
2023/10/12 10:33:37;;;;;;;12.63;6.40;;;19.50;1.00;;;;;;5025421;28;20522;-89
2023/10/12 10:36:34;;;;;;;23.83;7.43;;;19.40;1.00;;;;;;5031738;28;20519;-89
2023/10/12 10:41:48;;;;;;;17.93;7.40;;;19.40;1.00;;;;;;5011930;28;20421;-82
2023/10/12 10:44:21;;;;;;;17.07;6.33;;;19.40;1.00;;;;;;5008102;28;20494;-81
2023/10/12 10:50:29;;;;;;;33.20;7.47;;;19.40;1.00;;;;;;5015756;28;20438;-83
2023/10/12 10:53:08;;;;;;;16.17;6.30;;;19.50;1.00;;;;;;5011084;28;20441;-81
2023/10/12 10:55:35;;;;;;;19.20;7.00;;;19.50;1.00;;;;;;5014045;28;20431;-89
2023/10/12 10:58:17;;;;;;;13.40;6.80;;;19.60;1.00;;;;;;5026338;28;21030;-90
2023/10/12 11:01:34;;;;;;;19.10;6.93;;;19.60;1.00;;;;;;5027288;28;20672;-89
2023/10/12 11:04:17;;;;;;;18.27;6.67;;;19.60;1.00;;;;;;5017489;28;20489;-90
2023/10/12 11:06:53;;;;;;;21.17;7.10;;;19.60;1.00;;;;;;5010872;28;21024;-90
2023/10/12 11:09:31;;;;;;;33.37;7.00;;;19.60;1.00;;;;;;5019061;28;20431;-89
2023/10/12 11:12:24;;;;;;;19.63;6.73;;;19.50;1.00;;;;;;5010241;28;20436;-88
2023/10/12 11:15:05;;;;;;;13.90;7.20;;;19.50;1.00;;;;;;5012469;28;20827;-89
2023/10/12 11:18:00;;;;;;;16.53;7.13;;;19.50;1.00;;;;;;5018353;28;20460;-89
2023/10/12 11:20:38;;;;;;;20.00;8.03;;;19.50;1.00;;;;;;5000323;28;20462;-89
2023/10/12 11:23:52;;;;;;;20.53;6.90;;;19.50;1.00;;;;;;5021534;28;20434;-89
2023/10/12 11:26:55;;;;;;;24.53;7.50;;;19.40;1.00;;;;;;5021640;28;20476;-82
2023/10/12 11:29:22;;;;;;;20.20;7.00;;;19.40;1.00;;;;;;5015570;28;20854;-82
2023/10/12 11:32:40;;;;;;;26.80;8.63;;;19.40;1.00;;;;;;5010392;28;20449;-81
2023/10/12 11:35:06;;;;;;;16.90;6.70;;;19.40;1.00;;;;;;5009624;28;20522;-82
2023/10/12 11:37:57;;;;;;;16.33;6.90;;;19.40;1.00;;;;;;5026650;28;20459;-82
2023/10/12 11:40:41;;;;;;;17.77;6.30;;;19.40;1.00;;;;;;5003181;28;20798;-84
2023/10/12 11:43:18;;;;;;;14.30;7.13;;;19.50;1.00;;;;;;5011393;28;20413;-83
2023/10/12 11:46:01;;;;;;;18.63;6.80;;;19.50;1.00;;;;;;5016280;28;20441;-81
2023/10/12 11:51:53;;;;;;;12.17;6.73;;;19.50;1.00;;;;;;5012925;28;20446;-82
2023/10/12 11:57:58;;;;;;;20.17;6.80;;;19.60;1.00;;;;;;5019908;28;20522;-81
2023/10/12 12:01:12;;;;;;;15.07;7.10;;;19.80;1.00;;;;;;5010812;28;20424;-81
2023/10/12 12:03:46;;;;;;;17.03;7.53;;;19.80;1.00;;;;;;5010958;28;20528;-81
2023/10/12 12:06:25;;;;;;;16.73;7.77;;;19.90;1.00;;;;;;5010952;28;20462;-82
2023/10/12 12:09:28;;;;;;;13.80;7.10;;;20.00;1.00;;;;;;5010350;28;20468;-80
2023/10/12 12:11:55;;;;;;;15.20;6.67;;;20.10;1.00;;;;;;5009227;28;20438;-90
2023/10/12 12:14:46;;;;;;;19.30;7.30;;;20.20;1.00;;;;;;5018568;28;20452;-90
2023/10/12 12:17:17;;;;;;;17.17;6.80;;;20.20;1.00;;;;;;4995369;28;20921;-89
2023/10/12 12:20:38;;;;;;;12.77;5.97;;;20.30;1.00;;;;;;5016172;28;20436;-89
2023/10/12 12:23:35;;;;;;;17.67;6.50;;;20.40;1.00;;;;;;4998024;28;20413;-88
2023/10/12 12:29:26;;;;;;;18.13;6.73;;;20.60;1.00;;;;;;5010520;28;20978;-89
2023/10/12 12:35:15;;;;;;;12.87;6.67;;;20.50;1.00;;;;;;5009280;28;21015;-90
2023/10/12 12:37:41;;;;;;;16.73;6.00;;;20.70;1.00;;;;;;5025822;28;20464;-90
2023/10/12 12:43:11;;;;;;;17.00;6.07;;;20.70;1.00;;;;;;5000263;28;20419;-89
2023/10/12 12:45:53;;;;;;;11.73;6.50;;;20.80;1.00;;;;;;5014987;28;20428;-89
2023/10/12 12:51:49;;;;;;;19.50;5.80;;;20.80;1.00;;;;;;5011769;28;20450;-90
2023/10/12 12:54:17;;;;;;;11.77;5.60;;;20.90;1.00;;;;;;5015142;28;20920;-88
2023/10/12 12:57:16;;;;;;;20.33;6.43;;;21.00;1.00;;;;;;5007456;28;20431;-82
2023/10/12 12:59:42;;;;;;;18.13;7.10;;;21.00;1.00;;;;;;5013415;28;20448;-81
2023/10/12 13:02:17;;;;;;;20.13;6.40;;;21.10;1.00;;;;;;5012770;28;20438;-82
2023/10/12 13:04:43;;;;;;;19.90;6.37;;;21.20;1.00;;;;;;5005572;28;20630;-81
2023/10/12 13:07:46;;;;;;;17.90;6.13;;;21.20;1.00;;;;;;5029383;28;20450;-81
2023/10/12 13:10:17;;;;;;;13.80;6.20;;;21.20;1.00;;;;;;5016548;28;20774;-81
2023/10/12 13:12:43;;;;;;;18.87;6.80;;;21.10;1.00;;;;;;5003576;28;20474;-82
2023/10/12 13:15:10;;;;;;;15.37;5.50;;;21.00;1.00;;;;;;5022300;28;20509;-81
2023/10/12 13:17:56;;;;;;;22.60;7.00;;;;;;;;;;5011884;28;20207;-81
2023/10/12 13:20:22;;;;;;;35.77;8.67;;;21.00;1.00;;;;;;5007189;28;20465;-69
2023/10/12 13:22:50;;;;;;;30.63;7.97;;;21.00;1.00;;;;;;5003917;28;20453;-68
2023/10/12 13:25:18;;;;;;;27.93;7.67;;;20.80;1.00;;;;;;5010775;28;20495;-66
2023/10/12 13:27:49;;;;;;;24.63;7.30;;;20.80;1.00;;;;;;5013408;28;20443;-72
2023/10/12 13:30:15;;;;;;;17.80;6.23;;;20.70;1.00;;;;;;5015806;28;20488;-73
2023/10/12 13:32:47;;;;;;;33.63;7.23;;;20.70;1.00;;;;;;5010191;28;20421;-73
2023/10/12 13:35:28;;;;;;;22.00;6.97;;;20.40;1.00;;;;;;5010943;28;20438;-72
2023/10/12 13:38:02;;;;;;;37.60;8.93;;;20.20;1.00;;;;;;5006547;28;20485;-71
2023/10/12 13:40:29;;;;;;;40.37;9.20;;;20.30;1.00;;;;;;5008289;28;20535;-71
2023/10/12 13:43:01;;;;;;;26.80;7.30;;;20.00;1.00;;;;;;5011236;28;20519;-67
2023/10/12 13:45:28;;;;;;;38.77;9.50;;;19.90;1.00;;;;;;5011347;28;20443;-68
2023/10/12 13:47:55;;;;;;;44.13;9.73;;;19.70;1.00;;;;;;5008985;28;20457;-68
2023/10/12 13:50:20;;;;;;;36.63;9.00;;;19.60;1.00;;;;;;5010239;28;20452;-68
2023/10/12 13:52:46;;;;;;;34.27;8.17;;;19.50;1.00;;;;;;5009923;28;20474;-69
2023/10/12 13:55:12;;;;;;;35.60;8.80;;;19.50;1.00;;;;;;5012449;28;20667;-68
2023/10/12 13:58:24;;;;;;;31.80;7.63;;;19.40;1.00;;;;;;5012459;28;20663;-73
2023/10/12 14:00:54;;;;;;;14.90;6.70;;;19.30;1.00;;;;;;5014788;28;20408;-78
2023/10/12 14:03:34;;;;;;;23.20;8.30;;;19.30;1.00;;;;;;5013173;28;20447;-76
2023/10/12 14:09:48;;;;;;;13.60;6.77;;;19.10;1.00;;;;;;5024646;28;20447;-80
2023/10/12 14:12:34;;;;;;;18.53;8.00;;;18.80;1.00;;;;;;5012837;28;21157;-77
2023/10/12 14:15:29;;;;;;;19.60;8.20;;;18.70;1.00;;;;;;5014436;28;20444;-77
2023/10/12 14:18:28;;;;;;;41.77;9.60;;;18.60;1.00;;;;;;5012500;28;20480;-79
2023/10/12 14:21:18;;;;;;;17.10;7.53;;;18.50;1.00;;;;;;5022283;28;20473;-78
2023/10/12 14:24:10;;;;;;;15.77;7.27;;;18.50;1.00;;;;;;5009970;28;20420;-77
2023/10/12 14:26:43;;;;;;;18.00;6.97;;;18.50;1.00;;;;;;5014283;28;20419;-78
2023/10/12 14:29:36;;;;;;;22.70;7.70;;;18.50;1.00;;;;;;5014945;28;20918;-75
2023/10/12 14:32:02;;;;;;;18.10;6.53;;;18.40;1.00;;;;;;5018900;28;20468;-72
2023/10/12 14:34:28;;;;;;;21.70;7.43;;;18.40;1.00;;;;;;5021136;28;20456;-72
2023/10/12 14:36:59;;;;;;;20.80;7.10;;;18.40;1.00;;;;;;5019349;28;20950;-72
2023/10/12 14:40:05;;;;;;;18.97;7.10;;;18.40;1.00;;;;;;5013906;28;20243;-75
2023/10/12 14:55:58;;;;;;;19.23;7.53;;;18.50;1.00;;;;;;4996095;28;20894;-80
2023/10/12 14:58:52;;;;;;;16.17;6.30;;;18.50;1.00;;;;;;5014632;28;20491;-77
2023/10/12 15:01:38;;;;;;;32.00;8.27;;;18.50;1.00;;;;;;5014149;28;20188;-81
2023/10/12 15:04:28;;;;;;;14.97;6.73;;;18.60;1.00;;;;;;4994812;28;20489;-81
2023/10/12 15:10:19;;;;;;;15.03;7.07;;;18.60;1.00;;;;;;5013853;28;20426;-81
2023/10/12 15:12:48;;;;;;;14.93;7.30;;;18.60;1.00;;;;;;5014265;28;20470;-81
2023/10/12 15:15:25;;;;;;;21.63;7.60;;;18.60;1.00;;;;;;5014766;28;20409;-72
2023/10/12 15:17:54;;;;;;;22.37;8.10;;;18.70;1.00;;;;;;5014067;28;20474;-72
2023/10/12 15:20:23;;;;;;;15.03;7.33;;;18.70;1.00;;;;;;5013535;28;20439;-72
2023/10/12 15:22:49;;;;;;;16.50;7.20;;;18.70;1.00;;;;;;5014000;28;20458;-72
2023/10/12 15:25:19;;;;;;;17.73;7.40;;;18.70;1.00;;;;;;5013792;28;20929;-72
2023/10/12 15:27:45;;;;;;;23.20;8.00;;;18.70;1.00;;;;;;5013650;28;20417;-72
2023/10/12 15:30:11;;;;;;;14.17;7.50;;;18.70;1.00;;;;;;5014305;28;20436;-72
2023/10/12 15:32:41;;;;;;;15.10;7.67;;;18.60;1.00;;;;;;5014191;28;20454;-72
2023/10/12 15:35:10;;;;;;;19.90;7.77;;;18.60;1.00;;;;;;5013846;28;20562;-72
2023/10/12 15:37:48;;;;;;;16.33;7.80;;;18.60;1.00;;;;;;5013643;28;20466;-72
2023/10/12 15:40:26;;;;;;;20.90;8.00;;;18.60;1.00;;;;;;5014117;28;20906;-72
2023/10/12 15:42:54;;;;;;;17.43;7.40;;;18.60;1.00;;;;;;5013551;28;20435;-72
2023/10/12 15:52:11;;;;;;;13.17;7.10;;;18.50;1.00;;;;;;5014112;28;20510;-80
2023/10/12 15:58:40;;;;;;;15.50;7.50;;;18.50;1.00;;;;;;5017271;28;20600;-80
2023/10/12 16:01:11;;;;;;;13.47;7.50;;;18.40;1.00;;;;;;5016785;28;20407;-80
2023/10/12 16:03:37;;;;;;;13.20;7.40;;;18.40;1.00;;;;;;5017719;28;20407;-80
2023/10/12 16:06:36;;;;;;;14.57;7.93;;;18.30;1.00;;;;;;5017585;28;20402;-80
2023/10/12 16:09:04;;;;;;;16.03;7.37;;;18.30;1.00;;;;;;5007890;28;20260;-80
2023/10/12 16:11:33;;;;;;;12.13;7.67;;;18.20;1.00;;;;;;5001492;28;20972;-80
2023/10/12 16:13:59;;;;;;;23.33;8.93;;;18.30;1.00;;;;;;5017529;28;20400;-80
2023/10/12 16:19:43;;;;;;;17.40;8.10;;;18.30;1.00;;;;;;5016590;28;20191;-80
2023/10/12 16:22:09;;;;;;;15.37;9.13;;;18.20;1.00;;;;;;5017176;28;20405;-80
2023/10/12 16:24:36;;;;;;;12.77;7.57;;;18.20;1.00;;;;;;5017262;28;20374;-80
2023/10/12 16:27:05;;;;;;;19.80;8.80;;;18.20;1.00;;;;;;5007771;28;20419;-80
2023/10/12 16:30:17;;;;;;;16.83;7.90;;;18.10;1.00;;;;;;4997957;28;20766;-80
2023/10/12 16:32:51;;;;;;;21.53;8.20;;;18.10;1.00;;;;;;4997868;28;20408;-81
2023/10/12 16:38:39;;;;;;;13.93;7.87;;;18.00;1.00;;;;;;5016919;28;20451;-80
2023/10/12 16:44:26;;;;;;;19.47;8.50;;;17.90;1.00;;;;;;4997464;28;20382;-72
2023/10/12 16:46:53;;;;;;;13.70;8.33;;;17.90;1.00;;;;;;4997597;28;20408;-72
2023/10/12 16:49:24;;;;;;;17.10;7.93;;;17.90;1.00;;;;;;5015224;28;20215;-72
2023/10/12 16:51:50;;;;;;;15.23;8.37;;;17.90;1.00;;;;;;5017098;28;20407;-72
2023/10/12 16:54:16;;;;;;;20.97;8.40;;;17.90;1.00;;;;;;5016808;28;20422;-72
2023/10/12 16:56:46;;;;;;;12.87;7.70;;;17.80;1.00;;;;;;5015357;28;20770;-72
2023/10/12 16:59:15;;;;;;;16.37;8.20;;;17.80;1.00;;;;;;5017141;28;20391;-72
2023/10/12 17:01:44;;;;;;;24.80;8.23;;;17.80;1.00;;;;;;5017170;28;20893;-72
2023/10/12 17:04:20;;;;;;;16.30;8.23;;;17.80;1.00;;;;;;5015324;28;20995;-72
2023/10/12 17:06:48;;;;;;;21.10;8.00;;;17.80;1.00;;;;;;5016732;28;20426;-72
2023/10/12 17:09:15;;;;;;;15.90;7.43;;;17.70;1.00;;;;;;5016882;28;20404;-72
2023/10/12 17:11:41;;;;;;;22.57;7.80;;;17.70;1.00;;;;;;5016647;28;20426;-72
2023/10/12 17:14:07;;;;;;;15.13;7.67;;;17.70;1.00;;;;;;5016334;28;20404;-72
2023/10/12 17:16:34;;;;;;;18.30;8.00;;;17.70;1.00;;;;;;5016716;28;20409;-72
2023/10/12 17:19:03;;;;;;;19.53;7.80;;;17.70;1.00;;;;;;5016286;28;20406;-72
2023/10/12 17:22:11;;;;;;;25.00;8.40;;;17.70;1.00;;;;;;5015139;28;20431;-81
2023/10/12 17:24:58;;;;;;;18.30;8.60;;;17.70;1.00;;;;;;5014467;28;20427;-79
2023/10/12 17:32:25;;;;;;;81.87;17.83;;;17.60;1.00;;;;;;4985335;28;20448;-82
2023/10/12 17:34:55;;;;;;;31.20;10.50;;;17.70;1.00;;;;;;4979609;28;20271;-82
2023/10/12 17:37:37;;;;;;;30.23;10.80;;;17.70;1.00;;;;;;4976420;28;20472;-82
2023/10/12 17:40:12;;;;;;;27.43;9.73;;;17.70;1.00;;;;;;4979038;28;20961;-81
2023/10/12 17:42:38;;;;;;;23.50;8.93;;;;;;;;;;4982287;28;20520;-86
2023/10/12 17:45:17;;;;;;;23.90;9.33;;;17.70;1.00;;;;;;4978454;28;20412;-82
2023/10/12 17:48:03;;;;;;;17.43;8.43;;;17.70;1.00;;;;;;4978570;28;20444;-81
2023/10/12 17:50:37;;;;;;;16.90;8.63;;;17.70;1.00;;;;;;4993547;28;20800;-82